Impacts TAF Board
For situational awareness. Not to be used for flight planning purposes.
IDs:

KLNS - Lancaster Arpt, PA, US

Issued at 1318 UTC 03 Dec 2021
Updated at 1601 UTC 03 Dec 2021
Potential Impact None Slight Moderate High
Time1553Z 03/16Z 03/17Z 03/18Z 03/19Z 03/20Z 03/21Z 03/22Z 03/23Z 04/00Z 04/01Z 04/02Z 04/03Z 04/04Z>>
Type OBS PRVL PRVL PRVL PRVL PRVL PRVL PRVL PRVL PRVL PRVL PRVL PRVL PRVL
VIS 10 >6 >6 >6 >6 >6 >6 >6 >6 >6 >6 >6 >6 >6
CIG -- 100 100 100 100 100 100 100 100 100 100 50 50 50
Cover SCT BKN BKN BKN BKN BKN BKN BKN BKN BKN BKN BKN BKN BKN
FltCat VFR VFR VFR VFR VFR VFR VFR VFR VFR VFR VFR VFR VFR VFR
WX -- -- -- -- -- -- -- -- -- -- -- -- -- --
WDir 300 300 300 300 300 300 300 300 300 300 300 VRB VRB VRB
WSpd 11 10 10 10 10 10 10 10 10 10 10 3 3 3
WGst -- 18 18 18 18 18 18 18 18 18 18 -- -- --
WSHgt -- -- -- -- -- -- -- -- -- -- -- -- -- --
WSDir -- -- -- -- -- -- -- -- -- -- -- -- -- --
WSSpd -- -- -- -- -- -- -- -- -- -- -- -- -- --
Raw TAF
KLNS 031318Z 0313/0412 29005KT P6SM FEW050
  FM031500 30010G18KT P6SM BKN100
  FM040200 VRB03KT P6SM BKN050


Raw METAR
KLNS 031553Z 30011KT 10SM SCT042 08/M02 A3002 RMK AO2 SLP167 T00831017
KLNS 031453Z 31011KT 10SM SCT030 08/M02 A3002 RMK AO2 SLP166 T00781017 53022
KLNS 031353Z 30004KT 10SM CLR 07/M02 A2999 RMK AO2 SLP155 T00721017
KLNS 031253Z 25003KT 10SM FEW044 05/M03 A2998 RMK AO2 SLP152 T00501033

METAR Board
For situational awareness. Not to be used for flight planning purposes.